Time;durP1;ratioP1;P1;durP2;ratioP2;P2;SDS_P1;SDS_P2;PMS_P1;PMS_P2;Temp;Humidity;BMP_temperature;BMP_pressure;BME280_temperature;BME280_humidity;BME280_pressure;Samples;Min_cycle;Max_cycle;Signal;HPM_P1;HPM_P2
2023/04/30 00:01:53;;;;;;;16.38;10.55;;;;;;;7.47;100.00;102302.59;5114219;28;20123;-78
2023/04/30 00:04:18;;;;;;;15.02;10.02;;;;;;;7.43;100.00;102289.59;5113359;28;20462;-78
2023/04/30 00:06:44;;;;;;;17.27;10.52;;;;;;;7.37;100.00;102289.50;5105396;28;20065;-78
2023/04/30 00:09:09;;;;;;;18.42;10.10;;;;;;;7.39;100.00;102296.47;5112943;28;20370;-78
2023/04/30 00:11:35;;;;;;;15.30;10.15;;;;;;;7.40;100.00;102297.31;5111517;28;20024;-78
2023/04/30 00:14:01;;;;;;;18.95;10.02;;;;;;;7.35;100.00;102297.25;5113795;28;20040;-78
2023/04/30 00:16:26;;;;;;;16.75;9.88;;;;;;;7.25;100.00;102288.47;5112782;28;20360;-78
2023/04/30 00:18:51;;;;;;;18.35;11.10;;;;;;;7.25;100.00;102292.78;5093288;28;20107;-78
2023/04/30 00:21:16;;;;;;;17.25;11.02;;;;;;;7.23;100.00;102294.50;5095571;28;20057;-78
2023/04/30 00:23:42;;;;;;;17.52;11.35;;;;;;;7.22;100.00;102298.81;5105149;28;20512;-78
2023/04/30 00:26:07;;;;;;;18.10;11.18;;;;;;;7.21;100.00;102302.25;5099525;28;20107;-78
2023/04/30 00:28:32;;;;;;;16.88;10.55;;;;;;;7.16;100.00;102296.16;5114191;28;20524;-78
2023/04/30 00:30:58;;;;;;;15.80;10.20;;;;;;;7.13;100.00;102310.78;5113838;28;20110;-79
2023/04/30 00:33:23;;;;;;;15.68;11.10;;;;;;;7.09;100.00;102302.06;5112911;28;20409;-78
2023/04/30 00:35:49;;;;;;;16.75;11.48;;;;;;;7.07;100.00;102306.41;5113574;27;20027;-78
2023/04/30 00:38:14;;;;;;;14.93;10.30;;;;;;;7.09;100.00;102302.06;5105137;28;20412;-78
2023/04/30 00:40:41;;;;;;;14.23;10.52;;;;;;;7.02;100.00;102288.16;5099613;28;20032;-78
2023/04/30 00:43:06;;;;;;;16.52;10.23;;;;;;;6.95;100.00;102278.56;5112917;28;20019;-78
2023/04/30 00:45:31;;;;;;;17.05;10.57;;;;;;;7.02;100.00;102295.06;5104108;28;20485;-78
2023/04/30 00:47:57;;;;;;;16.55;10.73;;;;;;;7.10;100.00;102310.75;5109843;28;20065;-78
2023/04/30 00:50:22;;;;;;;17.33;10.48;;;;;;;7.00;100.00;102291.59;5104027;28;20036;-78
2023/04/30 00:52:48;;;;;;;17.17;10.98;;;;;;;7.08;100.00;102309.84;5110682;28;20027;-78
2023/04/30 00:55:14;;;;;;;14.85;10.80;;;;;;;6.95;100.00;102282.88;5104816;28;20162;-78
2023/04/30 00:57:39;;;;;;;17.80;10.70;;;;;;;7.02;100.00;102305.44;5106288;28;20519;-78
2023/04/30 01:00:08;;;;;;;18.30;11.82;;;;;;;6.98;100.00;102304.53;5103389;28;20059;-78
2023/04/30 01:02:34;;;;;;;17.90;10.50;;;;;;;6.95;100.00;102304.47;5106984;28;20023;-78
2023/04/30 01:05:01;;;;;;;16.02;10.82;;;;;;;6.90;100.00;102300.06;5106794;27;20133;-78
2023/04/30 01:07:27;;;;;;;17.27;11.30;;;;;;;6.85;100.00;102294.81;5091306;28;20027;-78
2023/04/30 01:09:53;;;;;;;17.05;10.85;;;;;;;6.82;100.00;102302.56;5077732;28;20024;-78
2023/04/30 01:12:40;;;;;;;16.10;11.60;;;;;;;6.80;100.00;102297.38;5084513;28;20079;-78
2023/04/30 01:15:35;;;;;;;18.10;11.75;;;;;;;6.78;100.00;102290.41;5092105;28;20025;-78
2023/04/30 01:18:15;;;;;;;19.92;11.73;;;;;;;6.76;100.00;102294.69;5080115;28;20035;-78
2023/04/30 01:20:55;;;;;;;19.23;11.13;;;;;;;6.70;100.00;102285.13;5092351;28;20542;-78
2023/04/30 01:23:50;;;;;;;17.00;12.23;;;;;;;6.70;100.00;102292.00;5085817;28;20031;-78
2023/04/30 01:26:27;;;;;;;18.50;11.90;;;;;;;6.65;100.00;102297.13;5088450;28;20455;-78
2023/04/30 01:28:53;;;;;;;16.83;10.95;;;;;;;6.57;100.00;102283.16;5091694;28;20059;-78
2023/04/30 01:31:19;;;;;;;16.70;11.43;;;;;;;6.60;100.00;102290.09;5092576;28;20040;-78
2023/04/30 01:33:45;;;;;;;16.85;11.57;;;;;;;6.58;100.00;102290.09;5092252;28;20012;-78
2023/04/30 01:36:28;;;;;;;16.33;11.32;;;;;;;6.59;100.00;102293.56;5091654;28;20089;-78
2023/04/30 01:39:26;;;;;;;15.68;11.20;;;;;;;6.55;100.00;102301.28;5080159;28;20027;-78
2023/04/30 01:41:55;;;;;;;15.77;11.02;;;;;;;6.55;100.00;102292.63;5077724;28;20471;-78
2023/04/30 01:44:32;;;;;;;19.48;12.00;;;;;;;6.52;100.00;102292.59;5091823;28;20352;-78
2023/04/30 01:47:05;;;;;;;15.65;11.38;;;;;;;6.51;100.00;102298.63;5092240;28;20032;-78
2023/04/30 01:49:52;;;;;;;17.60;11.68;;;;;;;6.46;100.00;102298.53;5082582;28;20417;-78
2023/04/30 01:52:22;;;;;;;17.58;11.27;;;;;;;6.40;100.00;102292.38;5092552;28;20118;-79
2023/04/30 01:54:55;;;;;;;17.25;12.23;;;;;;;6.39;100.00;102301.88;5094343;28;20028;-78
2023/04/30 01:57:28;;;;;;;17.50;12.02;;;;;;;6.34;100.00;102295.72;5095732;28;20035;-78
2023/04/30 01:59:54;;;;;;;17.90;12.38;;;;;;;6.33;100.00;102301.75;5096349;28;20047;-78
2023/04/30 02:02:19;;;;;;;17.27;11.70;;;;;;;6.26;100.00;102290.41;5096991;28;20477;-78
2023/04/30 02:04:44;;;;;;;17.65;12.10;;;;;;;6.24;100.00;102302.44;5105282;28;20045;-78
2023/04/30 02:07:11;;;;;;;17.35;13.07;;;;;;;6.27;100.00;102301.63;5099330;28;20024;-78
2023/04/30 02:09:37;;;;;;;19.52;12.43;;;;;;;6.25;100.00;102299.03;5103091;28;20039;-78
2023/04/30 02:12:03;;;;;;;16.98;12.52;;;;;;;6.27;100.00;102312.00;5093592;28;20020;-78
2023/04/30 02:14:30;;;;;;;19.67;12.15;;;;;;;6.18;100.00;102307.56;5098577;28;20122;-78
2023/04/30 02:16:56;;;;;;;19.30;12.80;;;;;;;6.16;100.00;102309.22;5110848;28;20066;-78
2023/04/30 02:19:21;;;;;;;19.00;13.23;;;;;;;6.11;100.00;102305.66;5093309;28;20479;-77
2023/04/30 02:21:46;;;;;;;18.95;12.80;;;;;;;6.11;100.00;102305.66;5095387;28;20039;-77
2023/04/30 02:24:11;;;;;;;18.13;13.20;;;;;;;6.05;100.00;102310.75;5095798;28;20028;-78
2023/04/30 02:26:37;;;;;;;18.38;12.85;;;;;;;6.02;100.00;102305.53;5095521;28;20115;-77
2023/04/30 02:29:02;;;;;;;18.13;12.05;;;;;;;6.04;100.00;102309.00;5096126;28;20099;-78
2023/04/30 02:31:27;;;;;;;20.35;12.02;;;;;;;6.00;100.00;102314.97;5095761;28;20051;-77
2023/04/30 02:33:53;;;;;;;18.48;12.27;;;;;;;5.91;100.00;102301.81;5094805;28;20063;-78
2023/04/30 02:36:18;;;;;;;17.15;12.95;;;;;;;5.89;100.00;102311.28;5095456;28;20028;-78
2023/04/30 02:38:43;;;;;;;20.33;12.00;;;;;;;5.91;100.00;102310.44;5094756;28;20028;-78
2023/04/30 02:41:08;;;;;;;20.15;12.82;;;;;;;5.89;100.00;102303.53;5095405;28;20063;-78
2023/04/30 02:43:34;;;;;;;18.10;12.57;;;;;;;5.84;100.00;102309.44;5095766;28;20081;-78
2023/04/30 02:45:59;;;;;;;19.77;13.32;;;;;;;5.76;100.00;102300.69;5094754;28;20386;-78
2023/04/30 02:48:25;;;;;;;17.33;13.02;;;;;;;5.77;100.00;102312.78;5095413;28;20030;-78
2023/04/30 02:50:50;;;;;;;19.90;13.82;;;;;;;5.70;100.00;102297.97;5095297;28;20031;-78
2023/04/30 02:53:15;;;;;;;20.08;13.60;;;;;;;5.67;100.00;102299.63;5094695;28;20087;-78
2023/04/30 02:55:41;;;;;;;22.38;13.85;;;;;;;5.72;100.00;102308.34;5094907;28;20111;-78
2023/04/30 02:58:06;;;;;;;19.70;13.88;;;;;;;5.72;100.00;102304.06;5095443;28;20111;-78
2023/04/30 03:00:31;;;;;;;20.25;13.93;;;;;;;5.72;100.00;102311.81;5094551;28;20047;-78
2023/04/30 03:02:56;;;;;;;19.83;13.82;;;;;;;5.74;100.00;102309.25;5094867;28;20114;-78
2023/04/30 03:05:22;;;;;;;18.70;14.07;;;;;;;5.68;100.00;102303.94;5094198;28;20016;-78
2023/04/30 03:07:48;;;;;;;18.60;13.43;;;;;;;5.64;100.00;102303.88;5094009;28;20441;-78
2023/04/30 03:10:13;;;;;;;18.85;13.23;;;;;;;5.65;100.00;102302.16;5095295;28;20031;-78
2023/04/30 03:12:38;;;;;;;21.13;14.48;;;;;;;5.64;100.00;102295.25;5094546;28;20474;-78
2023/04/30 03:15:04;;;;;;;21.98;15.23;;;;;;;5.62;100.00;102292.66;5084040;28;20044;-78
2023/04/30 03:17:29;;;;;;;21.17;14.75;;;;;;;5.60;100.00;102289.16;5090924;28;20023;-78
2023/04/30 03:19:55;;;;;;;17.52;13.90;;;;;;;5.57;100.00;102291.69;5096984;28;20110;-78
2023/04/30 03:22:22;;;;;;;21.95;14.13;;;;;;;5.51;100.00;102293.25;5097994;28;20051;-77
2023/04/30 03:24:48;;;;;;;22.10;14.52;;;;;;;5.40;100.00;102278.41;5080824;28;20036;-77
2023/04/30 03:27:15;;;;;;;22.50;14.30;;;;;;;5.50;100.00;102299.28;5095867;28;20027;-77
2023/04/30 03:29:41;;;;;;;19.85;13.98;;;;;;;5.44;100.00;102287.09;5099736;28;20020;-77
2023/04/30 03:32:06;;;;;;;22.38;14.63;;;;;;;5.51;100.00;102294.13;5092707;28;20475;-78
2023/04/30 03:34:31;;;;;;;21.30;14.43;;;;;;;5.49;100.00;102293.22;5094707;28;20024;-78
2023/04/30 03:36:57;;;;;;;20.83;14.38;;;;;;;5.47;100.00;102294.06;5092005;28;20563;-78
2023/04/30 03:39:22;;;;;;;22.10;14.88;;;;;;;5.40;100.00;102281.00;5094189;28;20032;-78
2023/04/30 03:41:47;;;;;;;20.67;14.90;;;;;;;5.46;100.00;102297.47;5095051;28;20036;-78
2023/04/30 03:44:14;;;;;;;22.08;15.02;;;;;;;5.47;100.00;102297.50;5107228;28;20024;-78
2023/04/30 03:46:42;;;;;;;21.35;15.60;;;;;;;5.39;100.00;102297.34;5097832;28;20080;-78
2023/04/30 03:49:07;;;;;;;23.70;15.27;;;;;;;5.35;100.00;102299.81;5101006;28;20475;-78
2023/04/30 03:51:32;;;;;;;24.08;15.90;;;;;;;5.33;100.00;102304.06;5104247;28;20059;-78
2023/04/30 03:53:57;;;;;;;25.88;15.65;;;;;;;5.27;100.00;102294.50;5097905;28;20429;-78
2023/04/30 03:56:24;;;;;;;24.50;16.27;;;;;;;5.29;100.00;102299.69;5098343;28;20074;-78
2023/04/30 03:58:50;;;;;;;24.98;16.38;;;;;;;5.27;100.00;102303.97;5096487;28;20025;-78
2023/04/30 04:01:15;;;;;;;25.63;15.00;;;;;;;5.27;100.00;102307.44;5095663;28;20032;-78
2023/04/30 04:03:40;;;;;;;28.83;15.43;;;;;;;5.28;100.00;102309.16;5090986;28;20020;-77
2023/04/30 04:06:05;;;;;;;25.77;15.85;;;;;;;5.14;100.00;102288.19;5097566;28;20061;-78
2023/04/30 04:08:31;;;;;;;24.05;15.93;;;;;;;5.27;100.00;102312.59;5097454;28;20387;-78
2023/04/30 04:10:57;;;;;;;22.58;15.85;;;;;;;5.25;100.00;102319.44;5097181;28;20275;-78
2023/04/30 04:13:22;;;;;;;22.23;16.50;;;;;;;5.20;100.00;102315.00;5099515;27;20072;-77
2023/04/30 04:15:47;;;;;;;22.20;16.50;;;;;;;5.06;100.00;102306.94;5082943;28;20028;-78
2023/04/30 04:18:13;;;;;;;24.83;16.30;;;;;;;5.12;100.00;102314.84;5097552;28;20536;-78
2023/04/30 04:20:38;;;;;;;24.52;17.05;;;;;;;5.08;100.00;102315.63;5107218;28;20043;-78
2023/04/30 04:23:04;;;;;;;26.27;17.08;;;;;;;5.11;100.00;102315.69;5093056;28;20054;-78
2023/04/30 04:25:30;;;;;;;23.92;17.40;;;;;;;5.10;100.00;102320.00;5102905;28;20110;-78
2023/04/30 04:27:55;;;;;;;25.08;17.25;;;;;;;5.11;100.00;102326.91;5100840;28;20028;-78
2023/04/30 04:30:21;;;;;;;26.65;18.33;;;;;;;5.07;100.00;102313.88;5095013;28;20038;-78
2023/04/30 04:32:48;;;;;;;27.95;17.73;;;;;;;5.10;100.00;102321.66;5104135;28;20092;-79
2023/04/30 04:35:18;;;;;;;25.27;18.08;;;;;;;5.11;100.00;102321.72;5099218;28;20467;-78
2023/04/30 04:37:43;;;;;;;25.23;18.45;;;;;;;5.14;100.00;102326.09;5102119;28;20077;-78
2023/04/30 04:40:10;;;;;;;26.52;18.92;;;;;;;5.10;100.00;102320.00;5092743;28;20036;-78
2023/04/30 04:42:37;;;;;;;26.17;18.05;;;;;;;5.13;100.00;102320.06;5096064;28;20055;-78
2023/04/30 04:45:03;;;;;;;25.58;18.55;;;;;;;5.20;100.00;102330.50;5093047;28;20205;-78
2023/04/30 04:47:29;;;;;;;29.38;19.10;;;;;;;5.18;100.00;102335.66;5092530;28;20103;-78
2023/04/30 04:49:54;;;;;;;23.77;18.52;;;;;;;5.23;100.00;102335.75;5092796;28;20107;-78
2023/04/30 04:52:19;;;;;;;25.75;18.77;;;;;;;5.28;100.00;102335.03;5092700;28;20064;-78
2023/04/30 04:54:45;;;;;;;26.55;18.55;;;;;;;5.33;100.00;102338.59;5092494;28;20023;-78
2023/04/30 04:57:10;;;;;;;29.30;19.00;;;;;;;5.33;100.00;102330.84;5093079;28;20035;-78
2023/04/30 04:59:35;;;;;;;25.83;18.92;;;;;;;5.32;100.00;102310.97;5090717;28;20035;-78
2023/04/30 05:02:00;;;;;;;26.98;19.00;;;;;;;5.50;100.00;102332.91;5092513;28;20089;-78
2023/04/30 05:04:27;;;;;;;28.88;18.75;;;;;;;5.56;100.00;102331.34;5093126;28;20031;-78
2023/04/30 05:06:53;;;;;;;25.17;19.27;;;;;;;5.61;100.00;102324.53;5092160;28;20024;-78
2023/04/30 05:09:18;;;;;;;25.92;18.80;;;;;;;5.71;100.00;102335.06;5093188;28;20016;-78
2023/04/30 05:11:45;;;;;;;28.33;19.20;;;;;;;5.72;100.00;102331.63;5092319;28;20032;-78
2023/04/30 05:14:10;;;;;;;24.42;18.35;;;;;;;5.79;100.00;102323.16;5089157;28;20202;-78
2023/04/30 05:16:35;;;;;;;28.20;19.75;;;;;;;5.88;100.00;102333.69;5081367;28;20123;-78
2023/04/30 05:19:00;;;;;;;25.20;19.23;;;;;;;5.94;100.00;102330.38;5092485;28;20028;-78
2023/04/30 05:21:28;;;;;;;28.02;18.83;;;;;;;5.97;100.00;102326.13;5091526;28;20178;-78
2023/04/30 05:23:54;;;;;;;25.50;18.50;;;;;;;6.04;100.00;102329.72;5092660;28;20024;-78
2023/04/30 05:26:19;;;;;;;29.80;19.10;;;;;;;6.04;100.00;102320.22;5092752;28;20356;-78
2023/04/30 05:28:45;;;;;;;30.17;18.23;;;;;;;6.08;100.00;102316.88;5090925;28;20050;-78
2023/04/30 05:31:10;;;;;;;25.08;17.48;;;;;;;6.18;100.00;102325.69;5092518;28;20031;-78
2023/04/30 05:33:35;;;;;;;25.77;17.85;;;;;;;6.25;100.00;102322.34;5092439;28;20058;-78
2023/04/30 05:36:01;;;;;;;24.67;18.42;;;;;;;6.30;100.00;102323.28;5091601;28;20018;-78
2023/04/30 05:38:26;;;;;;;26.75;17.23;;;;;;;6.36;100.00;102327.72;5092685;28;20028;-78
2023/04/30 05:40:52;;;;;;;23.75;17.70;;;;;;;6.44;100.00;102336.50;5092394;28;20031;-77
2023/04/30 05:43:17;;;;;;;28.67;17.92;;;;;;;6.49;100.00;102333.97;5091565;28;20107;-78
2023/04/30 05:45:42;;;;;;;25.80;17.92;;;;;;;6.50;100.00;102315.00;5090978;28;20043;-78
2023/04/30 05:48:08;;;;;;;24.80;17.48;;;;;;;6.61;100.00;102326.41;5092067;28;20024;-78
2023/04/30 05:50:33;;;;;;;24.77;17.60;;;;;;;6.67;100.00;102334.31;5091816;28;20042;-78
2023/04/30 05:52:58;;;;;;;25.35;17.55;;;;;;;6.73;100.00;102334.38;5097092;28;20019;-78
2023/04/30 05:55:23;;;;;;;25.00;18.25;;;;;;;6.80;100.00;102335.34;5093859;28;20020;-78
2023/04/30 05:57:49;;;;;;;24.73;17.85;;;;;;;6.80;100.00;102317.19;5096790;28;20095;-78
2023/04/30 06:00:15;;;;;;;24.92;16.98;;;;;;;6.81;100.00;102308.59;5092241;28;20067;-78
2023/04/30 06:02:40;;;;;;;20.17;15.98;;;;;;;7.00;100.00;102327.91;5091406;28;20028;-78
2023/04/30 06:05:06;;;;;;;18.95;15.50;;;;;;;7.05;100.00;102326.22;5091036;28;20024;-78
2023/04/30 06:07:32;;;;;;;19.48;15.52;;;;;;;7.12;100.00;102332.38;5092261;28;20036;-77
2023/04/30 06:09:57;;;;;;;19.85;14.40;;;;;;;7.15;100.00;102325.50;5091130;28;20031;-78
2023/04/30 06:12:23;;;;;;;19.58;14.75;;;;;;;7.19;100.00;102318.66;5092204;28;20070;-78
2023/04/30 06:14:48;;;;;;;20.08;14.90;;;;;;;7.31;100.00;102320.56;5083506;28;20071;-78
2023/04/30 06:17:14;;;;;;;21.17;13.77;;;;;;;7.35;100.00;102314.53;5085198;28;20028;-78
2023/04/30 06:19:40;;;;;;;19.63;14.10;;;;;;;7.45;100.00;102316.41;5091880;28;20020;-78
2023/04/30 06:22:05;;;;;;;22.15;14.00;;;;;;;7.50;100.00;102313.03;5092145;28;20364;-78
2023/04/30 06:24:30;;;;;;;17.58;12.90;;;;;;;7.61;100.00;102317.47;5091408;28;20391;-78
2023/04/30 06:26:56;;;;;;;19.38;14.20;;;;;;;7.61;100.00;102296.72;5092015;28;20050;-78
2023/04/30 06:29:23;;;;;;;18.73;14.18;;;;;;;7.75;100.00;102315.94;5092139;28;20383;-78
2023/04/30 06:31:51;;;;;;;19.50;13.93;;;;;;;7.84;100.00;102321.22;5091262;28;20054;-78
2023/04/30 06:34:18;;;;;;;18.80;13.93;;;;;;;7.92;100.00;102318.72;5092102;28;20038;-78
2023/04/30 06:36:43;;;;;;;19.55;13.40;;;;;;;7.98;100.00;102308.41;5091797;28;20108;-78
2023/04/30 06:39:09;;;;;;;18.63;13.23;;;;;;;8.08;100.00;102315.44;5091398;28;20550;-78
2023/04/30 06:41:34;;;;;;;18.17;13.98;;;;;;;8.18;100.00;102316.41;5094769;28;20027;-78
2023/04/30 06:43:59;;;;;;;19.45;13.57;;;;;;;8.19;100.00;102311.19;5095558;28;20028;-78
2023/04/30 06:46:24;;;;;;;16.40;13.00;;;;;;;8.20;100.00;102302.53;5094462;28;20085;-78
2023/04/30 06:48:50;;;;;;;17.75;13.02;;;;;;;8.39;100.00;102320.94;5095444;28;20052;-78
2023/04/30 06:51:15;;;;;;;20.08;12.82;;;;;;;8.47;100.00;102319.31;5095807;28;20023;-77
2023/04/30 06:53:41;;;;;;;19.25;13.95;;;;;;;8.51;100.00;102322.78;5094218;28;20471;-77
2023/04/30 06:56:06;;;;;;;18.45;13.50;;;;;;;8.60;100.00;102325.44;5095341;28;20020;-77
2023/04/30 06:58:32;;;;;;;18.70;13.98;;;;;;;8.63;100.00;102325.47;5095287;28;20024;-78
2023/04/30 07:00:57;;;;;;;21.55;13.52;;;;;;;8.66;100.00;102318.59;5094121;28;20039;-78
2023/04/30 07:03:22;;;;;;;21.25;13.73;;;;;;;8.76;100.00;102321.25;5095205;28;20080;-77
2023/04/30 07:05:48;;;;;;;18.73;13.70;;;;;;;8.82;100.00;102323.91;5094806;28;20016;-78
2023/04/30 07:08:14;;;;;;;17.40;13.07;;;;;;;8.90;100.00;102328.31;5094539;28;20153;-78
2023/04/30 07:10:39;;;;;;;18.35;13.43;;;;;;;8.99;100.00;102324.91;5094779;28;20016;-78
2023/04/30 07:13:06;;;;;;;17.90;13.50;;;;;;;9.04;100.00;102315.38;5094041;28;20380;-78
2023/04/30 07:15:31;;;;;;;18.02;13.32;;;;;;;9.18;100.00;102325.00;5080987;28;20078;-78
2023/04/30 07:17:57;;;;;;;19.02;13.25;;;;;;;9.24;100.00;102312.03;5094386;28;20109;-78
2023/04/30 07:20:22;;;;;;;18.38;14.18;;;;;;;9.27;100.00;102314.66;5094301;28;20035;-78
2023/04/30 07:22:47;;;;;;;17.83;13.45;;;;;;;9.40;100.00;102332.06;5094460;28;20077;-78
2023/04/30 07:25:13;;;;;;;18.13;13.32;;;;;;;9.46;100.00;102326.91;5095090;28;20028;-78
2023/04/30 07:27:39;;;;;;;18.75;13.43;;;;;;;9.53;100.00;102323.47;5090018;28;20024;-78
2023/04/30 07:30:06;;;;;;;19.90;13.75;;;;;;;9.42;100.00;102288.72;5094659;28;20035;-78
2023/04/30 07:32:34;;;;;;;19.30;13.48;;;;;;;9.68;100.00;102324.38;5094912;28;20039;-78
2023/04/30 07:34:59;;;;;;;16.10;13.52;;;;;;;9.76;100.00;102314.88;5093721;28;20399;-78
2023/04/30 07:37:24;;;;;;;18.02;13.57;;;;;;;9.81;100.00;102315.78;5094805;28;20032;-77
2023/04/30 07:39:50;;;;;;;18.80;13.18;;;;;;;9.88;100.00;102312.31;5094054;28;20450;-77
2023/04/30 07:42:15;;;;;;;16.15;12.65;;;;;;;9.92;100.00;102305.38;5094084;28;20024;-77
2023/04/30 07:44:40;;;;;;;19.65;13.38;;;;;;;9.99;100.00;102308.00;5094044;28;20077;-77
2023/04/30 07:47:06;;;;;;;21.40;13.38;;;;;;;10.13;100.00;102309.75;5094546;28;20513;-76
2023/04/30 07:49:31;;;;;;;17.60;12.60;;;;;;;10.24;100.00;102302.84;5093856;28;20429;-76
2023/04/30 07:51:57;;;;;;;18.45;13.07;;;;;;;10.33;100.00;102308.06;5093273;28;20376;-76
2023/04/30 07:54:22;;;;;;;18.17;13.07;;;;;;;10.43;100.00;102316.78;5094498;28;20031;-76
2023/04/30 07:56:47;;;;;;;18.50;12.23;;;;;;;10.49;100.00;102315.03;5093346;28;20020;-76
2023/04/30 07:59:13;;;;;;;15.80;11.73;;;;;;;10.52;100.00;102309.81;5094350;28;20468;-77
2023/04/30 08:01:38;;;;;;;15.45;11.70;;;;;;;10.62;100.00;102305.47;5097089;28;20032;-77
2023/04/30 08:04:04;;;;;;;16.00;11.32;;;;;;;10.72;100.00;102306.34;5093575;28;20069;-77
2023/04/30 08:06:29;;;;;;;17.90;11.40;;;;;;;10.74;100.00;102295.03;5093568;28;20032;-76
2023/04/30 08:08:54;;;;;;;16.02;11.77;;;;;;;10.86;100.00;102304.59;5105979;28;20494;-77
2023/04/30 08:11:20;;;;;;;15.20;11.38;;;;;;;10.98;100.00;102312.38;5093239;28;20031;-77
2023/04/30 08:13:46;;;;;;;14.65;10.60;;;;;;;11.10;100.00;102308.91;5093369;28;20044;-77
2023/04/30 08:16:11;;;;;;;16.70;12.18;;;;;;;11.21;100.00;102312.34;5087496;28;20479;-77
2023/04/30 08:18:43;;;;;;;15.63;11.95;;;;;;;11.31;100.00;102301.88;5093313;28;20020;-77
2023/04/30 08:21:08;;;;;;;18.20;11.65;;;;;;;11.45;100.00;102313.16;5093525;28;20111;-78
2023/04/30 08:23:34;;;;;;;14.98;11.32;;;;;;;11.56;99.73;102307.88;5094077;28;20157;-79
2023/04/30 08:25:59;;;;;;;18.92;12.40;;;;;;;11.63;100.00;102304.38;5095417;28;20032;-79
2023/04/30 08:28:24;;;;;;;14.13;11.80;;;;;;;11.74;98.45;102313.03;5097119;28;20032;-79
2023/04/30 08:30:50;;;;;;;15.35;11.95;;;;;;;11.84;96.37;102314.75;5093045;28;20027;-80
2023/04/30 08:33:15;;;;;;;14.27;11.68;;;;;;;11.81;96.69;102293.84;5092071;28;20467;-81
2023/04/30 08:35:40;;;;;;;17.38;11.73;;;;;;;11.94;93.24;102310.34;5108381;28;20065;-80
2023/04/30 08:38:06;;;;;;;14.20;10.65;;;;;;;12.00;93.31;102310.31;5102470;28;20452;-80
2023/04/30 08:40:34;;;;;;;12.55;9.55;;;;;;;12.14;94.45;102316.31;5096171;28;20034;-80
2023/04/30 08:43:05;;;;;;;12.52;10.35;;;;;;;12.27;93.85;102304.03;5089065;28;20085;-80
2023/04/30 08:45:40;;;;;;;15.02;9.68;;;;;;;12.36;90.18;102303.06;5091744;28;20032;-77
2023/04/30 08:48:10;;;;;;;11.65;8.80;;;;;;;12.50;88.47;102316.06;5096737;28;20039;-77
2023/04/30 08:50:35;;;;;;;11.68;8.30;;;;;;;12.52;87.03;102309.94;5092844;28;20449;-77
2023/04/30 08:53:01;;;;;;;10.85;8.93;;;;;;;12.64;90.86;102307.22;5092032;28;20032;-78
2023/04/30 08:55:27;;;;;;;11.48;9.38;;;;;;;12.77;88.13;102302.75;5092995;28;20012;-77
2023/04/30 08:57:53;;;;;;;10.23;7.90;;;;;;;12.84;83.20;102304.41;5092757;28;20025;-77
2023/04/30 09:00:19;;;;;;;9.80;8.25;;;;;;;12.96;84.99;102300.81;5090183;28;20149;-77
2023/04/30 09:02:45;;;;;;;13.82;9.10;;;;;;;13.16;86.36;102302.38;5100343;28;20101;-77
2023/04/30 09:05:13;;;;;;;10.82;9.05;;;;;;;13.26;84.90;102290.94;5102325;28;20024;-77
2023/04/30 09:07:43;;;;;;;13.52;9.57;;;;;;;13.49;88.09;102299.38;5086814;28;20020;-77
2023/04/30 09:10:21;;;;;;;11.38;8.50;;;;;;;13.61;83.97;102300.13;5088124;28;20035;-77
2023/04/30 09:13:05;;;;;;;12.85;8.82;;;;;;;13.67;80.92;102294.78;5080884;28;20098;-77
2023/04/30 09:15:32;;;;;;;12.77;9.38;;;;;;;13.77;82.07;102297.28;5086892;28;20055;-81
2023/04/30 09:18:09;;;;;;;10.68;8.23;;;;;;;13.91;81.11;102283.09;5076499;28;20040;-81
2023/04/30 09:20:35;;;;;;;11.23;8.35;;;;;;;14.06;78.65;102288.13;5084244;28;20031;-81
2023/04/30 09:23:08;;;;;;;9.85;8.05;;;;;;;14.14;78.74;102290.63;5088688;28;20027;-80
2023/04/30 09:25:42;;;;;;;10.18;8.80;;;;;;;14.22;79.75;102281.75;5092711;28;20032;-80
2023/04/30 09:28:10;;;;;;;10.95;8.90;;;;;;;14.36;76.31;102284.16;5091911;28;20094;-77
2023/04/30 09:30:35;;;;;;;12.15;10.15;;;;;;;14.49;75.77;102284.81;5085756;28;20044;-76
2023/04/30 09:33:01;;;;;;;10.70;9.07;;;;;;;14.63;77.54;102280.22;5088813;28;20468;-76
2023/04/30 09:35:31;;;;;;;13.77;8.50;;;;;;;14.87;76.98;102278.91;5090920;28;20119;-77
2023/04/30 09:37:59;;;;;;;11.80;7.97;;;;;;;15.11;71.38;102282.00;5092295;28;20035;-76
2023/04/30 09:40:36;;;;;;;12.30;7.90;;;;;;;15.03;68.88;102278.63;5092498;28;20032;-77
2023/04/30 09:43:02;;;;;;;11.98;8.23;;;;;;;15.09;72.54;102284.63;5091519;28;20357;-76
2023/04/30 09:45:48;;;;;;;11.40;9.43;;;;;;;15.11;71.86;102277.59;5089836;28;20034;-77
2023/04/30 09:48:21;;;;;;;13.73;9.63;;;;;;;15.15;72.65;102283.66;5089879;28;20097;-76
2023/04/30 09:50:48;;;;;;;11.10;9.70;;;;;;;15.14;72.55;102282.78;5082202;28;20028;-76
2023/04/30 09:53:14;;;;;;;14.98;10.82;;;;;;;15.21;75.08;102278.28;5090583;28;20024;-76
2023/04/30 09:55:48;;;;;;;13.85;10.60;;;;;;;15.40;71.85;102262.97;5086325;28;20039;-80
2023/04/30 09:58:15;;;;;;;13.63;10.38;;;;;;;15.58;73.28;102274.88;5090161;28;20032;-81
2023/04/30 10:00:43;;;;;;;11.70;9.38;;;;;;;15.66;70.05;102279.13;5092662;28;20115;-80
2023/04/30 10:03:10;;;;;;;12.18;10.07;;;;;;;15.89;70.70;102268.09;5091495;28;20032;-80
2023/04/30 10:05:39;;;;;;;11.35;9.35;;;;;;;15.97;69.35;102269.66;5078184;28;20059;-80
2023/04/30 10:08:13;;;;;;;12.10;9.65;;;;;;;15.89;68.48;102273.34;5091053;28;20490;-81
2023/04/30 10:10:43;;;;;;;12.43;9.43;;;;;;;15.86;70.22;102262.03;5079271;28;20036;-81
2023/04/30 10:13:18;;;;;;;11.57;8.85;;;;;;;15.82;66.35;102261.22;5089373;28;20072;-81
2023/04/30 10:15:53;;;;;;;12.48;9.38;;;;;;;15.53;68.92;102264.47;5077380;28;20086;-81
2023/04/30 10:18:25;;;;;;;11.20;9.25;;;;;;;15.60;72.31;102260.81;5094948;28;20028;-81
2023/04/30 10:20:53;;;;;;;12.45;9.27;;;;;;;16.04;72.67;102264.22;5095575;28;20044;-81
2023/04/30 10:23:20;;;;;;;10.70;9.30;;;;;;;16.11;64.88;102257.91;5094863;28;20028;-81
2023/04/30 10:25:47;;;;;;;11.93;9.55;;;;;;;16.10;66.99;102258.81;5095743;28;20379;-81
2023/04/30 10:28:12;;;;;;;10.43;8.60;;;;;;;16.19;67.77;102241.94;5096226;28;20020;-80
2023/04/30 10:30:39;;;;;;;10.88;8.63;;;;;;;16.36;67.01;102252.91;5094745;28;20497;-81
2023/04/30 10:33:14;;;;;;;11.85;9.43;;;;;;;16.29;65.18;102248.72;5095981;28;20020;-81
2023/04/30 10:35:55;;;;;;;10.00;8.95;;;;;;;16.43;68.00;102250.13;5095716;28;20111;-81
2023/04/30 10:38:23;;;;;;;10.23;9.18;;;;;;;16.65;66.33;102242.53;5095079;28;20016;-81
2023/04/30 10:40:50;;;;;;;10.75;8.73;;;;;;;16.87;63.87;102229.66;5095558;28;20024;-81
2023/04/30 10:43:20;;;;;;;10.15;9.15;;;;;;;16.85;62.28;102235.00;5095785;28;20024;-81
2023/04/30 10:45:47;;;;;;;10.73;9.43;;;;;;;16.95;64.77;102244.38;5094672;28;20028;-81
2023/04/30 10:48:15;;;;;;;12.05;8.82;;;;;;;16.98;58.91;102243.41;5095364;28;20035;-81
2023/04/30 10:50:45;;;;;;;11.93;9.75;;;;;;;17.03;63.51;102231.81;5095468;28;20058;-80
2023/04/30 10:53:16;;;;;;;10.43;8.88;;;;;;;17.09;58.67;102239.56;5094589;28;20024;-80
2023/04/30 10:55:53;;;;;;;11.63;9.15;;;;;;;17.17;62.63;102235.88;5095140;28;20099;-80
2023/04/30 10:58:36;;;;;;;9.80;8.88;;;;;;;17.38;62.06;102227.31;5094829;28;20032;-81
2023/04/30 11:01:14;;;;;;;10.43;9.27;;;;;;;17.45;57.52;102226.22;5095284;28;20032;-81
2023/04/30 11:03:41;;;;;;;10.77;9.68;;;;;;;17.44;58.27;102216.59;5095152;28;20044;-80
2023/04/30 11:06:10;;;;;;;10.32;9.32;;;;;;;17.47;58.33;102210.38;5094405;28;20501;-80
2023/04/30 11:08:36;;;;;;;9.93;8.43;;;;;;;17.51;57.45;102209.34;5095288;28;20523;-80
2023/04/30 11:11:04;;;;;;;11.93;9.13;;;;;;;17.60;58.60;102201.16;5094724;28;20451;-80